Time;durP1;ratioP1;P1;durP2;ratioP2;P2;SDS_P1;SDS_P2;PMS_P1;PMS_P2;Temp;Humidity;BMP_temperature;BMP_pressure;BME280_temperature;BME280_humidity;BME280_pressure;Samples;Min_cycle;Max_cycle;Signal;HPM_P1;HPM_P2
2022/11/28 00:02:06;;;;;;;0.00;0.00;;;5.30;99.90;;;;;;5063890;28;20213;-79
2022/11/28 00:04:31;;;;;;;0.10;0.10;;;5.30;99.90;;;;;;5063985;28;20352;-78
2022/11/28 00:06:57;;;;;;;0.10;0.10;;;5.30;99.90;;;;;;5065476;28;20204;-79
2022/11/28 00:09:24;;;;;;;0.10;0.10;;;5.30;99.90;;;;;;5065226;28;20208;-79
2022/11/28 00:11:50;;;;;;;0.10;0.10;;;5.20;99.90;;;;;;5064273;28;20652;-79
2022/11/28 00:14:17;;;;;;;0.10;0.10;;;5.20;99.90;;;;;;5062801;28;20218;-80
2022/11/28 00:16:43;;;;;;;0.10;0.10;;;5.10;99.90;;;;;;5062835;28;20190;-79
2022/11/28 00:19:10;;;;;;;0.00;0.00;;;5.20;99.90;;;;;;5063429;28;20218;-79
2022/11/28 00:21:37;;;;;;;0.10;0.10;;;5.10;99.90;;;;;;5063657;28;20200;-78
2022/11/28 00:24:03;;;;;;;0.10;0.10;;;5.10;99.90;;;;;;5062484;28;21331;-78
2022/11/28 00:26:30;;;;;;;0.10;0.10;;;5.20;99.90;;;;;;5064190;28;20183;-78
2022/11/28 00:28:56;;;;;;;0.10;0.10;;;5.20;99.90;;;;;;5061662;28;20226;-79
2022/11/28 00:31:24;;;;;;;0.10;0.10;;;5.10;99.90;;;;;;5077965;28;20216;-78
2022/11/28 00:33:50;;;;;;;0.10;0.10;;;5.00;99.90;;;;;;5062460;28;20925;-78
2022/11/28 00:36:16;;;;;;;0.00;0.00;;;5.10;99.90;;;;;;5079557;28;20242;-79
2022/11/28 00:38:42;;;;;;;0.10;0.10;;;5.00;99.90;;;;;;5063478;28;20176;-79
2022/11/28 00:41:18;;;;;;;0.10;0.10;;;5.00;99.90;;;;;;5062029;28;20191;-79
2022/11/28 00:43:47;;;;;;;0.10;0.10;;;5.00;99.90;;;;;;5061595;28;21004;-79
2022/11/28 00:46:14;;;;;;;0.03;0.03;;;5.10;99.90;;;;;;5062753;28;20190;-79
2022/11/28 00:48:40;;;;;;;0.00;0.00;;;5.10;99.90;;;;;;5063717;28;20627;-79
2022/11/28 00:51:07;;;;;;;0.10;0.10;;;5.10;99.90;;;;;;5062201;28;20242;-79
2022/11/28 00:53:33;;;;;;;0.97;0.33;;;5.10;99.90;;;;;;5078229;28;20662;-80
2022/11/28 00:55:59;;;;;;;0.10;0.10;;;5.00;99.90;;;;;;5060846;28;20180;-79
2022/11/28 00:58:24;;;;;;;0.10;0.10;;;5.00;99.90;;;;;;5062138;28;20262;-79
2022/11/28 01:00:50;;;;;;;0.10;0.10;;;5.00;99.90;;;;;;5064716;28;20202;-78
2022/11/28 01:03:15;;;;;;;0.10;0.10;;;5.00;99.90;;;;;;5063495;28;20189;-79
2022/11/28 01:05:42;;;;;;;0.10;0.10;;;5.00;99.90;;;;;;5064629;28;20208;-80
2022/11/28 01:08:09;;;;;;;0.10;0.10;;;5.00;99.90;;;;;;5063987;28;20190;-79
2022/11/28 01:10:39;;;;;;;0.00;0.00;;;5.00;99.90;;;;;;5063300;28;20204;-77
2022/11/28 01:13:05;;;;;;;0.10;0.10;;;5.00;99.90;;;;;;5062644;28;20588;-79
2022/11/28 01:15:31;;;;;;;0.10;0.10;;;5.10;99.90;;;;;;5063577;28;20219;-79
2022/11/28 01:17:56;;;;;;;0.10;0.10;;;5.10;99.90;;;;;;5062817;28;20187;-79
2022/11/28 01:20:22;;;;;;;0.10;0.10;;;5.10;99.90;;;;;;5064061;28;20193;-78
2022/11/28 01:22:47;;;;;;;0.10;0.10;;;5.10;99.90;;;;;;5065017;28;20185;-79
2022/11/28 01:25:13;;;;;;;0.10;0.10;;;5.20;99.90;;;;;;5062966;28;20220;-79
2022/11/28 01:27:38;;;;;;;0.10;0.10;;;5.10;99.90;;;;;;5062508;28;20193;-79
2022/11/28 01:30:04;;;;;;;0.10;0.10;;;5.20;99.90;;;;;;5061382;28;20251;-79
2022/11/28 01:32:30;;;;;;;0.10;0.10;;;5.10;99.90;;;;;;5062559;28;20226;-79
2022/11/28 01:34:56;;;;;;;0.10;0.10;;;5.10;99.90;;;;;;5078807;28;20205;-78
2022/11/28 01:37:22;;;;;;;0.10;0.10;;;5.10;99.90;;;;;;5057142;28;20184;-79
2022/11/28 01:39:47;;;;;;;0.10;0.10;;;5.10;99.90;;;;;;5060212;28;20197;-79
2022/11/28 01:42:17;;;;;;;0.10;0.10;;;5.10;99.90;;;;;;5061259;28;20309;-79
2022/11/28 01:44:49;;;;;;;0.10;0.10;;;5.20;99.90;;;;;;5061192;28;20212;-79
2022/11/28 01:47:20;;;;;;;0.10;0.10;;;5.20;99.90;;;;;;5062960;28;20726;-79
2022/11/28 01:49:47;;;;;;;0.10;0.10;;;5.20;99.90;;;;;;5062530;28;20741;-79
2022/11/28 01:52:18;;;;;;;0.00;0.00;;;5.20;99.90;;;;;;5061771;28;20191;-80
2022/11/28 01:54:47;;;;;;;0.10;0.10;;;5.10;99.90;;;;;;5061723;28;20296;-78
2022/11/28 01:57:17;;;;;;;0.10;0.10;;;5.10;99.90;;;;;;5061634;28;20186;-78
2022/11/28 02:00:10;;;;;;;0.10;0.10;;;5.10;99.90;;;;;;5079304;28;20191;-80
2022/11/28 02:02:57;;;;;;;0.00;0.00;;;5.20;99.90;;;;;;5061576;28;20194;-80
2022/11/28 02:05:22;;;;;;;0.10;0.10;;;5.10;99.90;;;;;;5061229;28;21040;-80
2022/11/28 02:07:49;;;;;;;0.10;0.10;;;5.20;99.90;;;;;;5060644;28;20279;-78
2022/11/28 02:10:21;;;;;;;0.00;0.00;;;5.20;99.90;;;;;;5061877;28;20270;-79
2022/11/28 02:13:14;;;;;;;0.10;0.10;;;5.20;99.90;;;;;;5061069;28;20176;-79
2022/11/28 02:16:01;;;;;;;0.10;0.10;;;5.10;99.90;;;;;;5078533;28;20210;-78
2022/11/28 02:19:08;;;;;;;0.10;0.10;;;5.00;99.90;;;;;;5061304;28;20188;-78
2022/11/28 02:21:53;;;;;;;5.67;5.43;;;5.10;99.90;;;;;;5061279;28;20275;-78
2022/11/28 02:24:48;;;;;;;0.00;0.00;;;5.00;99.90;;;;;;5062128;28;20688;-78
2022/11/28 02:27:42;;;;;;;0.10;0.10;;;5.00;99.90;;;;;;5060724;28;20564;-79
2022/11/28 02:30:15;;;;;;;0.10;0.10;;;4.90;99.90;;;;;;5060924;28;20208;-79
2022/11/28 02:32:53;;;;;;;0.10;0.10;;;4.80;99.90;;;;;;5061440;28;21097;-79
2022/11/28 02:35:37;;;;;;;0.10;0.10;;;4.90;99.90;;;;;;5061276;28;20215;-79
2022/11/28 02:38:27;;;;;;;0.00;0.00;;;4.90;99.90;;;;;;5062447;28;20188;-78
2022/11/28 02:41:14;;;;;;;0.10;0.10;;;5.00;99.90;;;;;;5077176;28;20223;-79
2022/11/28 02:43:51;;;;;;;0.10;0.10;;;5.00;99.90;;;;;;5060385;28;20683;-78
2022/11/28 02:46:28;;;;;;;0.10;0.10;;;5.00;99.90;;;;;;5062379;28;20185;-80
2022/11/28 02:49:04;;;;;;;0.10;0.10;;;5.00;99.90;;;;;;5066724;28;20197;-80
2022/11/28 02:51:47;;;;;;;0.10;0.10;;;4.90;99.90;;;;;;5065666;28;20178;-79
2022/11/28 02:54:16;;;;;;;1.57;1.57;;;5.00;99.90;;;;;;5066196;28;20255;-79
2022/11/28 02:56:49;;;;;;;0.10;0.10;;;4.90;99.90;;;;;;5064233;28;20282;-79
2022/11/28 02:59:35;;;;;;;0.10;0.10;;;4.80;99.90;;;;;;5064254;28;20189;-79
2022/11/28 03:02:02;;;;;;;0.10;0.10;;;4.90;99.90;;;;;;5065073;28;20187;-79
2022/11/28 03:04:55;;;;;;;0.10;0.10;;;4.80;99.90;;;;;;5064818;28;20211;-80
2022/11/28 03:07:38;;;;;;;0.10;0.10;;;4.80;99.90;;;;;;5064486;28;20672;-80
2022/11/28 03:10:34;;;;;;;0.73;0.73;;;4.80;99.90;;;;;;5065377;28;20217;-79
2022/11/28 03:13:10;;;;;;;0.10;0.10;;;4.70;99.90;;;;;;5064779;28;20191;-79
2022/11/28 03:16:05;;;;;;;0.10;0.10;;;4.70;99.90;;;;;;5063695;28;20202;-79
2022/11/28 03:18:56;;;;;;;0.10;0.10;;;4.70;99.90;;;;;;5064942;28;20189;-79
2022/11/28 03:21:39;;;;;;;0.10;0.10;;;4.80;99.90;;;;;;5053729;28;20217;-79
2022/11/28 03:24:26;;;;;;;0.53;0.53;;;4.80;99.90;;;;;;5063853;28;20230;-79
2022/11/28 03:26:59;;;;;;;0.10;0.10;;;4.70;99.90;;;;;;5066015;28;20183;-79
2022/11/28 03:29:40;;;;;;;0.10;0.10;;;4.70;99.90;;;;;;5066448;28;20687;-79
2022/11/28 03:32:12;;;;;;;0.10;0.10;;;4.70;99.90;;;;;;5067210;28;20178;-78
2022/11/28 03:34:43;;;;;;;0.10;0.10;;;4.70;99.90;;;;;;5064453;28;20249;-79
2022/11/28 03:37:24;;;;;;;0.10;0.10;;;4.70;99.90;;;;;;5064236;28;20179;-78
2022/11/28 03:39:57;;;;;;;0.00;0.00;;;4.70;99.90;;;;;;5065600;28;20187;-78
2022/11/28 03:42:27;;;;;;;0.10;0.10;;;4.80;99.90;;;;;;5063574;28;20191;-78
2022/11/28 03:45:17;;;;;;;0.57;0.57;;;4.70;99.90;;;;;;5064184;28;20215;-78
2022/11/28 03:47:46;;;;;;;0.00;0.00;;;4.60;99.90;;;;;;5063550;28;20185;-78
2022/11/28 03:50:17;;;;;;;0.10;0.10;;;4.70;99.90;;;;;;5065442;28;20323;-79
2022/11/28 03:52:50;;;;;;;0.00;0.00;;;4.60;99.90;;;;;;5063796;28;20176;-77
2022/11/28 03:55:24;;;;;;;0.00;0.00;;;4.80;99.90;;;;;;5065525;28;20209;-79
2022/11/28 03:57:53;;;;;;;0.10;0.10;;;4.80;99.90;;;;;;5061731;28;20181;-78
2022/11/28 04:00:18;;;;;;;0.00;0.00;;;4.70;99.90;;;;;;5061812;28;20730;-78
2022/11/28 04:02:51;;;;;;;0.10;0.10;;;4.70;99.90;;;;;;5063978;28;20192;-79
2022/11/28 04:05:35;;;;;;;0.10;0.10;;;4.80;99.90;;;;;;5062781;28;20220;-79
2022/11/28 04:08:15;;;;;;;0.10;0.10;;;4.70;99.90;;;;;;5063944;28;20251;-78
2022/11/28 04:10:55;;;;;;;0.10;0.10;;;4.70;99.90;;;;;;5063873;28;20198;-78
2022/11/28 04:13:23;;;;;;;0.83;0.83;;;4.60;99.90;;;;;;5064912;28;20197;-79
2022/11/28 04:16:11;;;;;;;0.10;0.10;;;4.70;99.90;;;;;;5064303;28;20193;-79
2022/11/28 04:18:59;;;;;;;0.03;0.03;;;4.70;99.90;;;;;;5081493;28;20198;-78
2022/11/28 04:21:50;;;;;;;0.10;0.10;;;4.90;99.90;;;;;;5064434;28;20180;-79
2022/11/28 04:24:35;;;;;;;0.10;0.10;;;4.80;99.90;;;;;;5080669;28;20223;-80
2022/11/28 04:27:05;;;;;;;0.10;0.10;;;4.80;99.90;;;;;;5063232;28;20218;-77
2022/11/28 04:29:36;;;;;;;0.10;0.10;;;4.90;99.90;;;;;;5063045;28;20203;-79
2022/11/28 04:32:03;;;;;;;0.10;0.10;;;5.00;99.90;;;;;;5064414;28;20179;-79
2022/11/28 04:34:31;;;;;;;0.10;0.10;;;5.00;99.90;;;;;;5063462;28;20302;-79
2022/11/28 04:36:59;;;;;;;0.10;0.10;;;4.90;99.90;;;;;;5063813;28;20187;-78
2022/11/28 04:39:26;;;;;;;0.10;0.10;;;4.90;99.90;;;;;;5063515;28;20190;-79
2022/11/28 04:41:57;;;;;;;0.10;0.10;;;5.00;99.90;;;;;;5080797;28;20467;-78
2022/11/28 04:44:32;;;;;;;0.10;0.10;;;5.00;99.90;;;;;;5063450;28;20205;-79
2022/11/28 04:46:58;;;;;;;0.10;0.10;;;5.10;99.90;;;;;;5063923;28;20199;-78
2022/11/28 04:49:25;;;;;;;0.10;0.10;;;4.90;99.90;;;;;;5064552;28;20214;-79
2022/11/28 04:52:13;;;;;;;0.10;0.10;;;4.90;99.90;;;;;;5063335;28;20187;-80
2022/11/28 04:55:00;;;;;;;0.10;0.10;;;4.80;99.90;;;;;;5062264;28;20201;-79
2022/11/28 04:57:33;;;;;;;0.10;0.10;;;4.80;99.90;;;;;;5063321;28;20533;-78
2022/11/28 05:00:03;;;;;;;0.10;0.10;;;4.80;99.90;;;;;;5063388;28;20236;-79
2022/11/28 05:02:30;;;;;;;0.10;0.10;;;4.80;99.90;;;;;;5080069;28;20182;-78
2022/11/28 05:04:57;;;;;;;0.10;0.10;;;4.80;99.90;;;;;;5063535;28;20299;-79
2022/11/28 05:07:23;;;;;;;0.10;0.10;;;4.70;99.90;;;;;;5062520;28;20197;-78
2022/11/28 05:09:49;;;;;;;0.10;0.10;;;4.80;99.90;;;;;;5064115;28;20260;-80
2022/11/28 05:12:14;;;;;;;0.10;0.10;;;4.80;99.90;;;;;;5063794;28;20238;-79
2022/11/28 05:14:40;;;;;;;0.10;0.10;;;4.90;99.90;;;;;;5062665;28;20704;-79
2022/11/28 05:17:06;;;;;;;0.10;0.10;;;4.80;99.90;;;;;;5061908;28;20250;-79
2022/11/28 05:19:32;;;;;;;0.10;0.10;;;4.80;99.90;;;;;;5062000;28;20185;-79
2022/11/28 05:21:57;;;;;;;0.00;0.00;;;4.60;99.90;;;;;;5062805;28;20369;-79
2022/11/28 05:24:23;;;;;;;0.03;0.03;;;4.60;99.90;;;;;;5062404;28;20208;-78
2022/11/28 05:26:49;;;;;;;0.10;0.10;;;4.70;99.90;;;;;;5063579;28;20625;-78
2022/11/28 05:29:14;;;;;;;0.00;0.00;;;4.80;99.90;;;;;;5064545;28;20748;-78
2022/11/28 05:31:40;;;;;;;0.33;0.33;;;4.70;99.90;;;;;;5062752;28;20267;-79
2022/11/28 05:34:06;;;;;;;0.20;0.20;;;4.60;99.90;;;;;;5063280;28;20196;-79
2022/11/28 05:36:31;;;;;;;0.10;0.10;;;4.60;99.90;;;;;;5062377;28;20183;-79
2022/11/28 05:38:57;;;;;;;0.00;0.00;;;4.60;99.90;;;;;;5062446;28;20207;-79
2022/11/28 05:41:28;;;;;;;0.10;0.10;;;4.50;99.90;;;;;;5062755;28;20677;-79
2022/11/28 05:43:55;;;;;;;0.00;0.00;;;4.60;99.90;;;;;;5062215;28;20212;-79
2022/11/28 05:46:20;;;;;;;0.10;0.10;;;4.70;99.90;;;;;;5061856;28;20272;-78
2022/11/28 05:48:46;;;;;;;0.10;0.10;;;4.70;99.90;;;;;;5068258;28;20909;-83
2022/11/28 05:51:12;;;;;;;0.10;0.10;;;4.80;99.90;;;;;;5068289;28;20200;-82
2022/11/28 05:53:37;;;;;;;0.10;0.10;;;4.90;99.90;;;;;;5070302;28;20191;-81
2022/11/28 05:56:12;;;;;;;0.10;0.10;;;4.90;99.90;;;;;;5067773;28;20280;-80
2022/11/28 05:58:38;;;;;;;0.10;0.10;;;4.90;99.90;;;;;;5063418;28;20930;-79
2022/11/28 06:01:36;;;;;;;0.10;0.10;;;4.90;99.90;;;;;;5081534;28;20207;-79
2022/11/28 06:04:01;;;;;;;0.10;0.10;;;4.80;99.90;;;;;;5009385;28;20222;-79
2022/11/28 06:06:32;;;;;;;0.00;0.00;;;4.80;99.90;;;;;;5061444;28;20677;-80
2022/11/28 06:08:58;;;;;;;0.10;0.10;;;4.90;99.90;;;;;;5061189;28;20247;-80
2022/11/28 06:11:26;;;;;;;0.10;0.10;;;5.00;99.90;;;;;;5065523;28;20216;-80
2022/11/28 06:13:52;;;;;;;0.10;0.10;;;4.90;99.90;;;;;;5062481;28;20223;-81
2022/11/28 06:16:21;;;;;;;0.10;0.10;;;4.90;99.90;;;;;;5061161;28;20188;-79
2022/11/28 06:18:47;;;;;;;0.10;0.10;;;4.80;99.90;;;;;;5060975;28;20415;-79
2022/11/28 06:21:14;;;;;;;0.03;0.03;;;4.80;99.90;;;;;;5060988;28;20279;-79
2022/11/28 06:23:39;;;;;;;0.10;0.10;;;4.80;99.90;;;;;;5076444;28;20530;-79
2022/11/28 06:26:17;;;;;;;0.10;0.10;;;4.90;99.90;;;;;;5056923;28;20200;-80
2022/11/28 06:28:42;;;;;;;0.10;0.10;;;5.00;99.90;;;;;;5061391;28;20272;-79
2022/11/28 06:31:14;;;;;;;0.07;0.07;;;4.90;99.90;;;;;;5064076;28;20340;-79
2022/11/28 06:33:39;;;;;;;0.10;0.10;;;4.90;99.90;;;;;;5077206;28;20190;-80
2022/11/28 06:36:06;;;;;;;0.10;0.10;;;5.00;99.90;;;;;;5061033;28;20545;-78
2022/11/28 06:38:32;;;;;;;0.10;0.10;;;4.90;99.90;;;;;;5077620;28;20713;-79
2022/11/28 06:40:59;;;;;;;0.10;0.10;;;4.80;99.90;;;;;;5062283;28;20197;-80
2022/11/28 06:43:25;;;;;;;0.10;0.10;;;4.80;99.90;;;;;;5061065;28;20282;-79
2022/11/28 06:45:51;;;;;;;0.10;0.10;;;4.80;99.90;;;;;;5060417;28;20210;-81
2022/11/28 06:48:17;;;;;;;0.03;0.03;;;4.80;99.90;;;;;;5061335;28;20189;-81
2022/11/28 06:50:42;;;;;;;0.10;0.10;;;4.90;99.90;;;;;;5060665;28;20208;-80
2022/11/28 06:53:08;;;;;;;0.10;0.10;;;5.00;99.90;;;;;;5063287;28;20183;-80
2022/11/28 06:55:33;;;;;;;0.10;0.10;;;5.00;99.90;;;;;;5062763;28;20566;-80
2022/11/28 06:57:59;;;;;;;0.00;0.00;;;5.00;99.90;;;;;;5063415;28;20441;-80
2022/11/28 07:00:24;;;;;;;0.10;0.10;;;5.10;99.90;;;;;;5063875;28;20189;-79
2022/11/28 07:02:50;;;;;;;0.10;0.10;;;5.00;99.90;;;;;;5063531;28;21096;-80
2022/11/28 07:05:16;;;;;;;0.10;0.10;;;4.90;99.90;;;;;;5061498;28;20207;-81
2022/11/28 07:07:44;;;;;;;0.10;0.10;;;5.00;99.90;;;;;;5058822;28;20286;-81
2022/11/28 07:10:10;;;;;;;0.10;0.10;;;5.00;99.90;;;;;;5060912;28;20527;-80
2022/11/28 07:12:36;;;;;;;0.10;0.10;;;5.10;99.90;;;;;;5072945;28;20296;-80
2022/11/28 07:15:02;;;;;;;0.07;0.07;;;5.30;99.90;;;;;;5052122;28;20210;-79
2022/11/28 07:17:27;;;;;;;0.10;0.10;;;5.30;99.90;;;;;;5054782;28;20230;-81
2022/11/28 07:19:53;;;;;;;0.10;0.10;;;4.90;99.90;;;;;;5061164;28;20223;-82
2022/11/28 07:22:18;;;;;;;0.10;0.10;;;4.80;99.90;;;;;;5063594;28;20227;-84
2022/11/28 07:24:45;;;;;;;0.10;0.10;;;4.80;99.90;;;;;;5063669;28;20213;-82
2022/11/28 07:27:10;;;;;;;0.10;0.10;;;4.90;99.90;;;;;;5078328;28;20658;-83
2022/11/28 07:29:36;;;;;;;0.10;0.10;;;5.10;99.90;;;;;;5061213;28;20226;-82
2022/11/28 07:32:04;;;;;;;0.00;0.00;;;5.30;99.90;;;;;;5062270;28;20189;-82
2022/11/28 07:34:30;;;;;;;0.10;0.10;;;5.40;99.90;;;;;;5065497;28;20266;-80
2022/11/28 07:36:55;;;;;;;0.10;0.10;;;5.40;99.90;;;;;;5064988;28;20225;-82
2022/11/28 07:39:21;;;;;;;0.10;0.10;;;5.20;99.90;;;;;;5064993;28;20188;-84
2022/11/28 07:41:46;;;;;;;0.10;0.10;;;5.20;99.90;;;;;;5064837;28;20181;-84
2022/11/28 07:44:16;;;;;;;0.10;0.10;;;5.10;99.90;;;;;;5063772;28;20220;-82
2022/11/28 07:46:42;;;;;;;0.10;0.10;;;5.00;99.90;;;;;;5061456;28;20185;-80
2022/11/28 07:49:07;;;;;;;0.10;0.10;;;5.20;99.90;;;;;;5063091;28;20300;-81
2022/11/28 07:51:33;;;;;;;0.10;0.10;;;5.10;99.90;;;;;;5063192;28;20192;-79
2022/11/28 07:54:00;;;;;;;0.10;0.10;;;5.10;99.90;;;;;;5063679;28;20201;-81
2022/11/28 07:56:28;;;;;;;0.10;0.10;;;5.20;99.90;;;;;;5063506;28;20209;-81
2022/11/28 07:58:54;;;;;;;0.00;0.00;;;5.30;99.90;;;;;;5063442;28;20676;-81
2022/11/28 08:01:22;;;;;;;0.10;0.10;;;5.30;99.90;;;;;;5063123;28;20185;-81
2022/11/28 08:03:49;;;;;;;0.00;0.00;;;5.30;99.90;;;;;;5063081;28;20224;-81
2022/11/28 08:06:16;;;;;;;0.10;0.10;;;5.20;99.90;;;;;;5064846;28;20202;-81
2022/11/28 08:08:43;;;;;;;0.00;0.00;;;5.20;99.90;;;;;;5065987;28;20215;-80
2022/11/28 08:11:09;;;;;;;0.10;0.10;;;5.20;99.90;;;;;;5065105;28;20205;-80
2022/11/28 08:13:36;;;;;;;0.10;0.10;;;5.20;99.90;;;;;;5063616;28;20250;-82
2022/11/28 08:16:07;;;;;;;0.10;0.10;;;5.20;99.90;;;;;;5064942;28;20219;-80
2022/11/28 08:18:34;;;;;;;0.00;0.00;;;5.20;99.90;;;;;;5065923;28;20666;-81
2022/11/28 08:21:08;;;;;;;0.00;0.00;;;5.30;99.90;;;;;;5066858;28;20181;-81
2022/11/28 08:23:35;;;;;;;0.10;0.10;;;5.30;99.90;;;;;;5064736;28;20186;-81
2022/11/28 08:26:06;;;;;;;0.10;0.10;;;5.30;99.90;;;;;;5066000;28;20177;-81
2022/11/28 08:28:32;;;;;;;0.10;0.10;;;5.30;99.90;;;;;;5082228;28;20173;-80
2022/11/28 08:31:00;;;;;;;0.00;0.00;;;5.30;99.90;;;;;;5064636;28;20209;-83
2022/11/28 08:33:25;;;;;;;0.10;0.10;;;5.20;99.90;;;;;;5065751;28;20184;-84
2022/11/28 08:35:51;;;;;;;0.10;0.10;;;5.30;99.90;;;;;;5067544;28;20207;-83
2022/11/28 08:38:17;;;;;;;0.10;0.10;;;5.40;99.90;;;;;;5066245;28;20222;-81
2022/11/28 08:40:43;;;;;;;0.00;0.00;;;5.50;99.90;;;;;;5064908;28;20186;-84
2022/11/28 08:43:08;;;;;;;0.10;0.10;;;5.50;99.90;;;;;;5066154;28;20188;-82
2022/11/28 08:45:37;;;;;;;0.10;0.10;;;5.60;99.90;;;;;;5064254;28;20207;-83
2022/11/28 08:48:04;;;;;;;0.10;0.10;;;5.60;99.90;;;;;;5064660;28;20193;-81
2022/11/28 08:50:29;;;;;;;0.10;0.10;;;5.80;99.90;;;;;;5081926;28;21243;-79
2022/11/28 08:52:55;;;;;;;0.10;0.10;;;6.00;99.90;;;;;;5065217;28;20196;-80
2022/11/28 08:55:21;;;;;;;0.10;0.10;;;6.00;99.90;;;;;;5063824;28;20197;-82
2022/11/28 08:57:46;;;;;;;0.10;0.10;;;5.90;99.90;;;;;;5065064;28;20183;-81
2022/11/28 09:00:12;;;;;;;0.10;0.10;;;5.90;99.90;;;;;;5064262;28;20245;-82
2022/11/28 09:02:38;;;;;;;0.10;0.10;;;5.90;99.90;;;;;;5065371;28;20638;-82
2022/11/28 09:05:04;;;;;;;0.10;0.10;;;5.80;99.90;;;;;;5064534;28;20203;-81
2022/11/28 09:07:29;;;;;;;0.10;0.10;;;5.90;99.90;;;;;;5065305;28;20663;-80
2022/11/28 09:09:55;;;;;;;0.10;0.10;;;6.00;99.90;;;;;;5064450;28;20209;-82
2022/11/28 09:12:21;;;;;;;0.10;0.10;;;6.20;99.90;;;;;;5064931;28;20231;-81
2022/11/28 09:14:46;;;;;;;0.10;0.10;;;6.20;99.90;;;;;;5063421;28;20225;-80
2022/11/28 09:17:14;;;;;;;0.10;0.10;;;6.10;99.90;;;;;;5063493;28;20291;-82
2022/11/28 09:19:40;;;;;;;0.10;0.10;;;6.00;99.90;;;;;;5064781;28;20275;-82
2022/11/28 09:22:05;;;;;;;0.10;0.10;;;5.90;99.90;;;;;;5064863;28;20207;-80
2022/11/28 09:24:31;;;;;;;0.10;0.10;;;5.90;99.90;;;;;;5063789;28;20678;-80
2022/11/28 09:26:56;;;;;;;0.10;0.10;;;6.00;99.90;;;;;;5064682;28;20662;-81
2022/11/28 09:29:22;;;;;;;0.10;0.10;;;6.10;99.90;;;;;;5060997;28;20198;-81
2022/11/28 09:31:47;;;;;;;0.10;0.10;;;6.20;99.90;;;;;;5062138;28;20267;-81
2022/11/28 09:34:13;;;;;;;0.10;0.10;;;6.00;99.90;;;;;;5064544;28;20208;-82
2022/11/28 09:36:39;;;;;;;0.10;0.10;;;6.10;99.90;;;;;;5062750;28;20741;-82
2022/11/28 09:39:04;;;;;;;0.10;0.10;;;6.20;99.90;;;;;;5065063;28;20189;-80
2022/11/28 09:41:39;;;;;;;0.10;0.10;;;6.20;99.90;;;;;;5061321;28;20226;-82
2022/11/28 09:44:32;;;;;;;0.10;0.10;;;6.30;99.90;;;;;;5062942;28;20661;-80
2022/11/28 09:47:03;;;;;;;0.10;0.10;;;6.30;99.90;;;;;;5061250;28;20187;-80
2022/11/28 09:49:54;;;;;;;0.10;0.10;;;6.50;99.90;;;;;;5060614;28;20197;-79
2022/11/28 09:52:19;;;;;;;0.10;0.10;;;6.80;99.90;;;;;;5061655;28;20266;-80
2022/11/28 09:54:58;;;;;;;0.10;0.10;;;6.70;99.90;;;;;;5061569;28;20630;-81
2022/11/28 09:57:45;;;;;;;0.10;0.10;;;6.70;99.90;;;;;;5058939;28;20463;-80
2022/11/28 10:00:20;;;;;;;0.10;0.10;;;6.70;99.90;;;;;;5045912;28;20207;-80
2022/11/28 10:03:33;;;;;;;1.20;0.77;;;6.70;99.90;;;;;;5059997;28;20189;-79
2022/11/28 10:06:04;;;;;;;0.10;0.10;;;6.40;99.90;;;;;;5061140;28;20186;-79
2022/11/28 10:09:02;;;;;;;1.80;1.80;;;6.20;99.90;;;;;;5059856;28;20628;-80
2022/11/28 10:11:42;;;;;;;0.10;0.10;;;6.50;99.90;;;;;;5043871;28;20323;-81
2022/11/28 10:14:48;;;;;;;0.10;0.10;;;6.50;99.90;;;;;;5062414;28;20650;-81
2022/11/28 10:17:38;;;;;;;0.10;0.10;;;6.70;99.90;;;;;;5069507;28;20188;-81
2022/11/28 10:20:17;;;;;;;0.10;0.10;;;7.00;99.90;;;;;;5068210;28;20252;-80
2022/11/28 10:22:52;;;;;;;0.10;0.10;;;7.30;99.90;;;;;;5064974;28;20227;-82
2022/11/28 10:25:23;;;;;;;0.10;0.10;;;7.30;99.90;;;;;;5065067;28;20723;-80
2022/11/28 10:27:49;;;;;;;0.10;0.10;;;7.10;99.90;;;;;;5060297;28;20181;-79
2022/11/28 10:30:24;;;;;;;0.10;0.10;;;7.30;99.90;;;;;;5062049;28;20214;-80
2022/11/28 10:33:21;;;;;;;0.10;0.10;;;7.50;99.90;;;;;;5076693;28;20216;-80
2022/11/28 10:35:52;;;;;;;0.10;0.10;;;7.70;99.90;;;;;;5062549;28;20253;-80
2022/11/28 10:38:24;;;;;;;2.20;2.10;;;7.80;99.90;;;;;;5061768;28;20188;-81
2022/11/28 10:40:58;;;;;;;0.10;0.10;;;7.70;99.90;;;;;;5060478;28;20760;-80
2022/11/28 10:43:42;;;;;;;0.10;0.10;;;7.40;99.90;;;;;;5059334;28;20184;-79
2022/11/28 10:46:33;;;;;;;0.10;0.10;;;7.60;99.90;;;;;;5077636;28;20219;-79
2022/11/28 10:49:23;;;;;;;0.07;0.07;;;7.70;99.90;;;;;;5061543;28;20205;-81
2022/11/28 10:52:15;;;;;;;0.10;0.10;;;7.70;99.90;;;;;;5061216;28;20200;-80
2022/11/28 10:54:40;;;;;;;0.10;0.10;;;7.80;99.90;;;;;;5061379;28;20227;-80
2022/11/28 10:57:16;;;;;;;0.10;0.10;;;7.90;99.90;;;;;;5060365;28;20554;-80
2022/11/28 11:00:00;;;;;;;0.10;0.10;;;8.00;99.90;;;;;;5062449;28;20174;-80
2022/11/28 11:02:36;;;;;;;0.10;0.10;;;7.90;99.90;;;;;;5062599;28;20182;-79
2022/11/28 11:05:04;;;;;;;0.10;0.10;;;7.90;99.90;;;;;;5061445;28;20216;-79
2022/11/28 11:07:32;;;;;;;0.10;0.10;;;8.00;99.90;;;;;;5077473;28;20181;-80
2022/11/28 11:10:20;;;;;;;0.10;0.10;;;8.00;99.90;;;;;;5066763;28;20670;-79
2022/11/28 11:12:46;;;;;;;0.10;0.10;;;8.10;99.90;;;;;;5065119;28;20463;-79
2022/11/28 11:15:31;;;;;;;0.10;0.10;;;8.10;99.90;;;;;;5065017;28;20201;-80
2022/11/28 11:17:59;;;;;;;0.10;0.10;;;7.90;99.90;;;;;;5065419;28;20173;-81
2022/11/28 11:20:33;;;;;;;0.10;0.10;;;7.70;99.90;;;;;;5065612;28;20251;-80
2022/11/28 11:23:09;;;;;;;0.10;0.10;;;7.60;99.90;;;;;;5082579;28;20183;-79
2022/11/28 11:25:35;;;;;;;0.40;0.40;;;7.70;99.90;;;;;;5066605;28;20294;-79
2022/11/28 11:28:03;;;;;;;0.10;0.10;;;8.00;99.90;;;;;;5064313;28;20181;-79
2022/11/28 11:30:38;;;;;;;0.10;0.10;;;7.60;99.90;;;;;;5080130;28;20206;-80
2022/11/28 11:33:06;;;;;;;0.10;0.10;;;7.40;99.90;;;;;;5063040;28;20190;-81
2022/11/28 11:35:47;;;;;;;0.10;0.10;;;7.50;99.90;;;;;;5065776;28;20207;-80
2022/11/28 11:38:21;;;;;;;0.10;0.10;;;7.60;99.90;;;;;;5066545;28;20269;-81
2022/11/28 11:40:50;;;;;;;0.10;0.10;;;7.80;99.90;;;;;;5080971;28;20188;-80
2022/11/28 11:43:31;;;;;;;0.10;0.10;;;7.90;99.90;;;;;;5065475;28;20189;-82
2022/11/28 11:46:12;;;;;;;0.10;0.10;;;7.30;99.90;;;;;;5065904;28;20658;-81
2022/11/28 11:48:46;;;;;;;0.10;0.10;;;7.40;99.90;;;;;;5064516;28;20558;-83
2022/11/28 11:51:28;;;;;;;0.10;0.10;;;7.00;99.90;;;;;;5079932;28;20228;-81
2022/11/28 11:54:14;;;;;;;0.10;0.10;;;6.90;99.90;;;;;;5065414;28;20210;-79
2022/11/28 11:56:43;;;;;;;1.60;1.60;;;6.70;99.90;;;;;;5063644;28;20243;-82
2022/11/28 11:59:47;;;;;;;0.10;0.10;;;6.70;99.90;;;;;;5064788;28;20169;-81
2022/11/28 12:02:31;;;;;;;0.30;0.30;;;6.70;99.90;;;;;;5066421;28;20247;-81
2022/11/28 12:05:17;;;;;;;0.87;0.87;;;7.10;99.90;;;;;;5070708;28;20201;-83
2022/11/28 12:08:11;;;;;;;0.00;0.00;;;7.00;99.90;;;;;;5068106;28;20193;-83
2022/11/28 12:10:46;;;;;;;0.10;0.10;;;6.80;99.90;;;;;;5070182;28;20206;-83
2022/11/28 12:13:21;;;;;;;0.10;0.10;;;6.70;99.90;;;;;;5084625;28;20239;-84
2022/11/28 12:16:06;;;;;;;0.10;0.10;;;6.70;99.90;;;;;;5068580;28;20197;-82
2022/11/28 12:18:44;;;;;;;0.10;0.10;;;6.80;99.90;;;;;;5067102;28;20188;-82
2022/11/28 12:21:13;;;;;;;0.10;0.10;;;7.00;99.90;;;;;;5066219;28;20184;-82
2022/11/28 12:23:47;;;;;;;0.10;0.10;;;7.00;99.90;;;;;;5066738;28;20181;-82
2022/11/28 12:26:47;;;;;;;0.10;0.10;;;7.00;99.90;;;;;;5067085;28;20185;-80
2022/11/28 12:29:24;;;;;;;0.10;0.10;;;7.30;99.90;;;;;;5066001;28;20556;-79
2022/11/28 12:31:53;;;;;;;0.10;0.10;;;7.50;99.90;;;;;;5068754;28;20196;-80
2022/11/28 12:34:39;;;;;;;0.10;0.10;;;7.20;99.90;;;;;;5068337;28;20205;-82
2022/11/28 12:37:26;;;;;;;0.10;0.10;;;7.10;99.90;;;;;;5067154;28;20265;-84
2022/11/28 12:40:06;;;;;;;0.10;0.10;;;7.10;99.90;;;;;;5064638;28;21186;-80
2022/11/28 12:43:16;;;;;;;0.10;0.10;;;7.20;99.90;;;;;;5064925;28;20184;-80
2022/11/28 12:46:09;;;;;;;0.10;0.10;;;7.40;99.90;;;;;;4960778;28;20205;-82
2022/11/28 12:48:59;;;;;;;0.10;0.10;;;7.20;99.90;;;;;;5064597;28;20606;-80
2022/11/28 12:51:59;;;;;;;0.00;0.00;;;7.20;99.90;;;;;;5063026;28;20228;-81
2022/11/28 12:54:31;;;;;;;0.10;0.10;;;7.00;99.90;;;;;;5064181;28;20212;-81
2022/11/28 12:56:59;;;;;;;0.10;0.10;;;7.20;99.90;;;;;;5065959;28;20179;-83
2022/11/28 12:59:49;;;;;;;0.10;0.10;;;7.30;99.90;;;;;;5067513;28;20181;-81
2022/11/28 13:02:47;;;;;;;0.00;0.00;;;7.50;99.90;;;;;;5066025;28;20259;-81
2022/11/28 13:05:39;;;;;;;0.10;0.10;;;7.20;99.90;;;;;;5064286;28;20323;-83
2022/11/28 13:08:33;;;;;;;0.10;0.10;;;7.20;99.90;;;;;;5065375;28;20185;-82
2022/11/28 13:11:24;;;;;;;0.10;0.10;;;7.20;99.90;;;;;;5065700;28;20204;-80
2022/11/28 13:14:08;;;;;;;0.10;0.10;;;7.20;99.90;;;;;;5065316;28;20208;-80
2022/11/28 13:16:42;;;;;;;0.07;0.07;;;7.50;99.90;;;;;;5077905;28;20577;-81
2022/11/28 13:19:17;;;;;;;0.10;0.10;;;7.40;99.90;;;;;;5064253;28;20257;-82
2022/11/28 13:21:55;;;;;;;0.10;0.10;;;6.90;99.90;;;;;;5063821;28;20185;-82
2022/11/28 13:24:55;;;;;;;0.10;0.10;;;6.90;99.90;;;;;;5064193;28;20299;-82
2022/11/28 13:27:45;;;;;;;0.00;0.00;;;7.00;99.90;;;;;;5061970;28;20222;-81
2022/11/28 13:30:37;;;;;;;0.10;0.10;;;6.90;99.90;;;;;;5062140;28;20954;-79